createdAt,value
2024-04-15T00:01:53.238Z,66.93
2024-04-15T00:04:19.464Z,66.93
2024-04-15T00:06:45.565Z,66.86
2024-04-15T00:09:11.626Z,66.84
2024-04-15T00:11:37.678Z,66.90
2024-04-15T00:14:03.890Z,66.82
2024-04-15T00:16:30.633Z,66.77
2024-04-15T00:18:56.806Z,66.57
2024-04-15T00:21:22.861Z,66.71
2024-04-15T00:23:48.976Z,66.41
2024-04-15T00:26:15.025Z,66.63
2024-04-15T00:28:41.073Z,66.60
2024-04-15T00:31:07.203Z,66.63
2024-04-15T00:33:33.368Z,66.20
2024-04-15T00:35:59.810Z,65.31
2024-04-15T00:38:25.884Z,65.30
2024-04-15T00:40:52.019Z,65.19
2024-04-15T00:43:18.164Z,65.25
2024-04-15T00:45:44.361Z,65.35
2024-04-15T00:48:17.613Z,64.82
2024-04-15T00:50:45.667Z,65.77
2024-04-15T00:53:14.188Z,65.96
2024-04-15T00:55:41.871Z,66.51
2024-04-15T00:58:08.666Z,66.26
2024-04-15T01:00:35.961Z,67.00
2024-04-15T01:03:02.414Z,67.29
2024-04-15T01:05:28.567Z,67.43
2024-04-15T01:07:54.652Z,67.23
2024-04-15T01:10:20.818Z,67.49
2024-04-15T01:12:47.101Z,67.48
2024-04-15T01:15:13.176Z,67.30
2024-04-15T01:17:39.327Z,67.47
2024-04-15T01:20:05.792Z,66.86
2024-04-15T01:22:40.130Z,66.54
2024-04-15T01:25:06.313Z,66.67
2024-04-15T01:27:32.757Z,66.90
2024-04-15T01:29:58.940Z,67.02
2024-04-15T01:32:25.076Z,67.09
2024-04-15T01:34:51.185Z,66.75
2024-04-15T01:37:17.269Z,66.70
2024-04-15T01:39:43.431Z,66.72
2024-04-15T01:42:09.633Z,66.81
2024-04-15T01:44:35.704Z,66.97
2024-04-15T01:47:01.921Z,66.61
2024-04-15T01:49:27.992Z,66.80
2024-04-15T01:51:54.088Z,67.10
2024-04-15T01:54:20.200Z,66.50
2024-04-15T01:56:46.243Z,66.08
2024-04-15T01:59:12.285Z,66.58
2024-04-15T02:01:38.473Z,66.76
2024-04-15T02:04:04.680Z,66.83
2024-04-15T02:06:30.833Z,67.28
2024-04-15T02:08:56.912Z,67.19
2024-04-15T02:11:23.145Z,67.16
2024-04-15T02:13:49.245Z,67.90
2024-04-15T02:16:15.377Z,67.94
2024-04-15T02:18:41.854Z,67.74
2024-04-15T02:21:08.062Z,67.61
2024-04-15T02:23:34.114Z,67.76
2024-04-15T02:26:00.166Z,68.04
2024-04-15T02:28:26.277Z,67.96
2024-04-15T02:30:52.442Z,67.82
2024-04-15T02:33:18.541Z,67.94
2024-04-15T02:35:45.931Z,67.69
2024-04-15T02:38:12.028Z,67.44
2024-04-15T02:40:38.082Z,67.76
2024-04-15T02:43:04.262Z,68.03
2024-04-15T02:45:30.356Z,67.94
2024-04-15T02:47:56.542Z,68.01
2024-04-15T02:50:22.693Z,67.57
2024-04-15T02:52:48.735Z,67.66
2024-04-15T02:55:14.994Z,68.01
2024-04-15T02:57:41.151Z,67.67
2024-04-15T03:00:07.787Z,67.56
2024-04-15T03:02:33.960Z,67.65
2024-04-15T03:05:00.405Z,67.10
2024-04-15T03:07:26.587Z,67.10
2024-04-15T03:09:53.840Z,67.02
2024-04-15T03:12:19.929Z,67.42
2024-04-15T03:14:46.002Z,67.57
2024-04-15T03:17:12.130Z,67.81
2024-04-15T03:19:38.230Z,67.28
2024-04-15T03:22:04.442Z,67.11
2024-04-15T03:24:30.590Z,66.98
2024-04-15T03:26:59.091Z,67.50
2024-04-15T03:29:25.165Z,67.93
2024-04-15T03:31:51.206Z,67.66
2024-04-15T03:34:17.772Z,67.91
2024-04-15T03:36:44.414Z,68.10
2024-04-15T03:39:10.515Z,68.15
2024-04-15T03:41:36.572Z,68.83
2024-04-15T03:44:02.661Z,67.91
2024-04-15T03:46:28.754Z,67.97
2024-04-15T03:48:55.135Z,68.31
2024-04-15T03:51:21.191Z,68.38
2024-04-15T03:53:47.286Z,68.57
2024-04-15T03:56:13.338Z,68.66
2024-04-15T03:58:39.382Z,69.15
2024-04-15T04:01:05.777Z,69.24
2024-04-15T04:03:31.915Z,69.43
2024-04-15T04:06:09.725Z,68.51
2024-04-15T04:08:38.250Z,68.94
2024-04-15T04:11:08.439Z,69.07
2024-04-15T04:13:35.895Z,69.27
2024-04-15T04:16:05.254Z,69.18
2024-04-15T04:18:31.497Z,69.28
2024-04-15T04:20:57.714Z,69.16
2024-04-15T04:23:23.748Z,69.34
2024-04-15T04:25:50.181Z,69.51
2024-04-15T04:28:16.634Z,69.89
2024-04-15T04:30:42.794Z,69.92
2024-04-15T04:33:08.956Z,70.08
2024-04-15T04:35:41.189Z,69.95
2024-04-15T04:38:07.720Z,69.64
2024-04-15T04:40:34.353Z,69.81
2024-04-15T04:43:00.532Z,69.82
2024-04-15T04:45:26.655Z,69.58
2024-04-15T04:47:52.830Z,69.36
2024-04-15T04:50:18.938Z,68.94
2024-04-15T04:52:45.004Z,68.14
2024-04-15T04:55:11.122Z,68.27
2024-04-15T04:57:37.214Z,68.48
2024-04-15T05:00:03.862Z,68.04
2024-04-15T05:02:29.941Z,67.89
2024-04-15T05:04:57.484Z,67.35
2024-04-15T05:07:23.610Z,66.95
2024-04-15T05:09:49.682Z,66.83
2024-04-15T05:12:15.818Z,66.54
2024-04-15T05:14:41.863Z,67.36
2024-04-15T05:17:09.745Z,67.44
2024-04-15T05:19:35.803Z,67.47
2024-04-15T05:22:01.896Z,67.84
2024-04-15T05:24:27.998Z,67.69
2024-04-15T05:26:56.479Z,67.42
2024-04-15T05:29:24.186Z,67.91
2024-04-15T05:31:50.419Z,67.33
2024-04-15T05:34:16.515Z,66.81
2024-04-15T05:36:42.678Z,67.56
2024-04-15T05:39:08.787Z,68.03
2024-04-15T05:41:34.871Z,68.31
2024-04-15T05:44:00.932Z,67.52
2024-04-15T05:46:27.070Z,67.65
2024-04-15T05:48:53.231Z,67.78
2024-04-15T05:51:20.679Z,67.92
2024-04-15T05:53:46.726Z,68.51
2024-04-15T05:56:12.789Z,68.92
2024-04-15T05:58:38.871Z,69.46
2024-04-15T06:01:05.021Z,68.78
2024-04-15T06:03:31.170Z,68.83
2024-04-15T06:05:57.528Z,67.94
2024-04-15T06:08:23.602Z,68.41
2024-04-15T06:10:50.010Z,68.55
2024-04-15T06:13:19.890Z,68.90
2024-04-15T06:15:46.136Z,68.96
2024-04-15T06:18:12.266Z,68.53
2024-04-15T06:20:38.801Z,67.35
2024-04-15T06:23:04.866Z,67.32
2024-04-15T06:25:30.907Z,66.37
2024-04-15T06:27:57.150Z,64.67
2024-04-15T06:30:23.206Z,65.44
2024-04-15T06:32:49.311Z,65.32
2024-04-15T06:35:15.373Z,65.31
2024-04-15T06:37:41.430Z,64.76
2024-04-15T06:40:08.061Z,64.06
2024-04-15T06:42:34.164Z,63.58
2024-04-15T06:45:00.267Z,63.52
2024-04-15T06:47:26.424Z,63.13
2024-04-15T06:49:52.546Z,63.36
2024-04-15T06:52:19.062Z,62.84
2024-04-15T06:54:45.348Z,60.49
2024-04-15T06:57:11.432Z,60.80
2024-04-15T06:59:37.507Z,60.43
2024-04-15T07:02:03.763Z,61.26
2024-04-15T07:04:30.089Z,60.07
2024-04-15T07:06:56.248Z,59.37
2024-04-15T07:09:22.375Z,58.95
2024-04-15T07:11:48.429Z,58.00
2024-04-15T07:14:14.519Z,57.89
2024-04-15T07:16:40.697Z,56.78
2024-04-15T07:19:06.846Z,57.15
2024-04-15T07:21:32.927Z,57.74
2024-04-15T07:23:58.957Z,56.72
2024-04-15T07:26:25.035Z,56.91
2024-04-15T07:28:52.972Z,56.21
2024-04-15T07:31:19.169Z,55.99
2024-04-15T07:33:45.343Z,56.27
2024-04-15T07:36:11.436Z,56.15
2024-04-15T07:38:37.507Z,55.75
2024-04-15T07:41:03.767Z,55.44
2024-04-15T07:43:32.653Z,55.22
2024-04-15T07:45:58.780Z,55.34
2024-04-15T07:48:24.913Z,54.94
2024-04-15T07:50:51.005Z,54.67
2024-04-15T07:53:17.155Z,54.18
2024-04-15T07:55:46.565Z,54.79
2024-04-15T07:58:12.745Z,54.37
2024-04-15T08:00:38.846Z,53.49
2024-04-15T08:03:05.208Z,53.69
2024-04-15T08:05:32.044Z,54.45
2024-04-15T08:07:58.179Z,54.01
2024-04-15T08:10:24.299Z,53.76
2024-04-15T08:12:50.465Z,53.45
2024-04-15T08:15:16.573Z,54.26
2024-04-15T08:17:43.730Z,54.02
2024-04-15T08:20:10.502Z,53.85
2024-04-15T08:22:36.608Z,54.02
2024-04-15T08:25:09.140Z,53.80
2024-04-15T08:27:38.293Z,53.94
2024-04-15T08:30:05.414Z,54.11
2024-04-15T08:32:32.192Z,53.55
2024-04-15T08:34:58.319Z,53.81
2024-04-15T08:37:24.573Z,53.93
2024-04-15T08:39:50.690Z,54.21
2024-04-15T08:42:30.710Z,53.44
2024-04-15T08:45:00.109Z,54.23
2024-04-15T08:47:30.968Z,54.51
2024-04-15T08:50:00.295Z,54.42
2024-04-15T08:52:26.545Z,54.36
2024-04-15T08:54:52.839Z,53.66
2024-04-15T08:57:19.934Z,53.80
2024-04-15T08:59:46.197Z,54.21
2024-04-15T09:02:15.182Z,54.32
2024-04-15T09:04:42.014Z,54.59
2024-04-15T09:07:08.285Z,53.71
2024-04-15T09:09:34.485Z,54.30
2024-04-15T09:12:00.796Z,55.01
2024-04-15T09:14:26.963Z,53.35
2024-04-15T09:16:53.945Z,53.20
2024-04-15T09:19:22.796Z,53.28
2024-04-15T09:21:49.000Z,53.04
2024-04-15T09:24:15.091Z,53.24
2024-04-15T09:26:43.233Z,53.59
2024-04-15T09:29:09.437Z,53.15
2024-04-15T09:31:36.967Z,53.06
2024-04-15T09:34:03.116Z,53.08
2024-04-15T09:36:30.255Z,52.45
2024-04-15T09:38:57.605Z,52.10
2024-04-15T09:41:23.935Z,51.62
2024-04-15T09:43:51.301Z,51.92
2024-04-15T09:46:18.415Z,51.99
2024-04-15T09:48:45.640Z,51.79
2024-04-15T09:51:20.603Z,51.02
2024-04-15T09:53:51.476Z,51.56
2024-04-15T09:56:26.154Z,51.54
2024-04-15T09:59:02.581Z,51.01
2024-04-15T10:01:32.959Z,50.96
2024-04-15T10:04:03.397Z,49.70
2024-04-15T10:06:46.152Z,49.62
2024-04-15T10:09:16.152Z,49.45
2024-04-15T10:11:43.039Z,48.47
2024-04-15T10:14:12.462Z,48.83
2024-04-15T10:16:40.413Z,48.17
2024-04-15T10:19:09.207Z,47.72
2024-04-15T10:21:35.975Z,47.78
2024-04-15T10:24:04.217Z,47.58
2024-04-15T10:26:30.564Z,46.63
2024-04-15T10:29:19.397Z,47.96
2024-04-15T10:31:53.593Z,47.62
2024-04-15T10:34:24.483Z,47.79
2024-04-15T10:36:52.416Z,47.83
2024-04-15T10:39:19.843Z,47.48
2024-04-15T10:41:47.423Z,46.60
2024-04-15T10:44:13.666Z,47.21
2024-04-15T10:46:42.808Z,46.68
2024-04-15T10:49:08.999Z,45.40
2024-04-15T10:51:35.907Z,45.73
2024-04-15T10:54:02.330Z,45.98
2024-04-15T10:56:28.902Z,46.22
2024-04-15T10:58:55.007Z,45.81
2024-04-15T11:01:21.829Z,46.94
2024-04-15T11:03:49.185Z,46.22
2024-04-15T11:06:19.566Z,45.77
2024-04-15T11:08:46.150Z,46.03
2024-04-15T11:11:13.538Z,46.26
2024-04-15T11:13:40.302Z,46.14
2024-04-15T11:16:07.163Z,46.32
2024-04-15T11:18:33.308Z,46.03
2024-04-15T11:21:00.600Z,46.21
2024-04-15T11:23:27.057Z,46.91
2024-04-15T11:25:55.920Z,46.38
2024-04-15T11:28:23.194Z,46.09
2024-04-15T11:30:50.107Z,46.14
2024-04-15T11:33:17.243Z,46.26
2024-04-15T11:35:48.967Z,46.01
2024-04-15T11:38:15.450Z,46.06
2024-04-15T11:40:41.701Z,46.18
2024-04-15T11:43:07.880Z,45.70
2024-04-15T11:45:34.129Z,46.20
2024-04-15T11:48:00.370Z,46.11
2024-04-15T11:50:26.574Z,46.44
2024-04-15T11:52:57.726Z,46.21
2024-04-15T11:55:24.166Z,45.92
2024-04-15T11:57:50.502Z,45.54
2024-04-15T12:00:16.778Z,45.56
2024-04-15T12:02:44.372Z,44.90
2024-04-15T12:05:12.452Z,44.39
2024-04-15T12:07:42.637Z,44.78
2024-04-15T12:10:09.707Z,44.53
2024-04-15T12:12:36.099Z,44.86
2024-04-15T12:15:04.111Z,43.15
2024-04-15T12:17:31.708Z,43.55
2024-04-15T12:19:57.844Z,42.94
2024-04-15T12:22:23.993Z,42.09
2024-04-15T12:25:01.326Z,42.55
2024-04-15T12:27:36.157Z,41.03
2024-04-15T12:30:04.682Z,39.17
2024-04-15T12:32:32.273Z,39.46
2024-04-15T12:34:58.422Z,38.54
2024-04-15T12:37:24.691Z,38.44
2024-04-15T12:39:50.867Z,39.36
2024-04-15T12:42:16.941Z,38.96
2024-04-15T12:44:43.398Z,39.05
2024-04-15T12:47:09.604Z,39.51
2024-04-15T12:49:38.721Z,39.31
2024-04-15T12:52:05.914Z,39.18
2024-04-15T12:54:31.996Z,38.69
2024-04-15T12:56:59.194Z,39.94
2024-04-15T12:59:25.273Z,40.07
2024-04-15T13:02:01.893Z,39.17
2024-04-15T13:04:33.319Z,40.54
2024-04-15T13:06:59.518Z,39.57
2024-04-15T13:09:25.708Z,39.85
2024-04-15T13:11:51.828Z,40.21
2024-04-15T13:14:17.977Z,39.76
2024-04-15T13:16:44.032Z,39.48
2024-04-15T13:19:10.215Z,40.12
2024-04-15T13:21:36.288Z,40.90
2024-04-15T13:24:02.434Z,40.47
2024-04-15T13:26:28.565Z,40.63
2024-04-15T13:28:54.861Z,40.71
2024-04-15T13:31:21.070Z,41.43
2024-04-15T13:33:48.330Z,41.41
2024-04-15T13:36:14.929Z,41.54
2024-04-15T13:38:41.602Z,41.53
2024-04-15T13:41:07.825Z,41.79
2024-04-15T13:43:34.391Z,42.38
2024-04-15T13:46:03.039Z,42.41
2024-04-15T13:48:30.868Z,41.65
2024-04-15T13:50:56.913Z,40.30
2024-04-15T13:53:22.995Z,39.64
2024-04-15T13:55:49.080Z,40.34
2024-04-15T13:58:15.594Z,40.59
2024-04-15T14:00:41.711Z,39.87
2024-04-15T14:03:08.407Z,39.44
2024-04-15T14:05:35.137Z,39.56
2024-04-15T14:08:01.261Z,40.74
2024-04-15T14:10:27.345Z,41.07
2024-04-15T14:12:54.011Z,40.91
2024-04-15T14:15:20.456Z,41.30
2024-04-15T14:17:47.674Z,41.70
2024-04-15T14:20:15.038Z,42.50
2024-04-15T14:22:41.148Z,43.25
2024-04-15T14:25:07.400Z,43.42
2024-04-15T14:27:33.869Z,43.75
2024-04-15T14:30:00.591Z,44.30
2024-04-15T14:32:26.715Z,43.28
2024-04-15T14:34:53.611Z,43.38
2024-04-15T14:37:22.189Z,43.25
2024-04-15T14:39:50.261Z,41.74
2024-04-15T14:42:19.035Z,42.01
2024-04-15T14:44:45.107Z,41.33
2024-04-15T14:47:11.286Z,41.26
2024-04-15T14:49:37.373Z,41.33
2024-04-15T14:52:04.287Z,41.78
2024-04-15T14:54:30.339Z,40.71
2024-04-15T14:56:57.902Z,40.62
2024-04-15T14:59:23.950Z,39.92
2024-04-15T15:01:50.153Z,39.77
2024-04-15T15:04:17.639Z,39.71
2024-04-15T15:06:43.694Z,39.60
2024-04-15T15:09:10.117Z,39.87
2024-04-15T15:11:36.251Z,40.34
2024-04-15T15:14:02.371Z,40.77
2024-04-15T15:16:28.595Z,40.48
2024-04-15T15:18:56.044Z,41.22
2024-04-15T15:21:28.118Z,40.94
2024-04-15T15:23:55.099Z,40.82
2024-04-15T15:26:21.237Z,40.80
2024-04-15T15:28:47.425Z,40.72
2024-04-15T15:31:13.524Z,41.44
2024-04-15T15:33:41.938Z,41.27
2024-04-15T15:36:08.031Z,41.62
2024-04-15T15:38:35.753Z,41.84
2024-04-15T15:41:02.161Z,42.14
2024-04-15T15:43:28.297Z,41.72
2024-04-15T15:45:56.519Z,42.11
2024-04-15T15:48:23.723Z,41.37
2024-04-15T15:50:49.858Z,41.67
2024-04-15T15:53:15.900Z,42.06
2024-04-15T15:55:41.995Z,41.65
2024-04-15T15:58:08.516Z,42.45
2024-04-15T16:00:36.236Z,42.49
2024-04-15T16:03:03.245Z,42.12
2024-04-15T16:05:29.742Z,42.34
2024-04-15T16:07:58.088Z,42.73
2024-04-15T16:10:24.275Z,42.59
2024-04-15T16:12:50.331Z,43.30
2024-04-15T16:15:16.391Z,42.94
2024-04-15T16:17:42.550Z,43.24
2024-04-15T16:20:11.258Z,42.50
2024-04-15T16:22:37.548Z,41.81
2024-04-15T16:25:03.879Z,42.08
2024-04-15T16:27:30.060Z,41.74
2024-04-15T16:29:56.108Z,41.56
2024-04-15T16:32:22.206Z,41.86
2024-04-15T16:34:48.365Z,42.76
2024-04-15T16:37:15.835Z,42.84
2024-04-15T16:39:42.590Z,41.42
2024-04-15T16:42:08.814Z,41.90
2024-04-15T16:44:34.856Z,41.41
2024-04-15T16:47:01.048Z,41.44
2024-04-15T16:49:31.880Z,42.08
2024-04-15T16:51:58.154Z,41.84
2024-04-15T16:54:24.232Z,41.93
2024-04-15T16:56:50.332Z,42.08
2024-04-15T16:59:16.467Z,41.81
2024-04-15T17:01:42.584Z,42.38
2024-04-15T17:04:08.745Z,42.05
2024-04-15T17:06:35.004Z,41.42
2024-04-15T17:09:01.226Z,41.54
2024-04-15T17:11:27.334Z,41.61
2024-04-15T17:13:53.506Z,42.31
2024-04-15T17:16:19.676Z,42.18
2024-04-15T17:18:45.868Z,42.42
2024-04-15T17:21:11.952Z,42.71
2024-04-15T17:23:38.077Z,42.86
2024-04-15T17:26:04.420Z,43.15
2024-04-15T17:28:30.609Z,43.35
2024-04-15T17:30:56.875Z,44.23
2024-04-15T17:33:24.377Z,45.35
2024-04-15T17:35:50.697Z,45.85
2024-04-15T17:38:16.743Z,46.89
2024-04-15T17:40:42.825Z,47.22
2024-04-15T17:43:08.885Z,48.58
2024-04-15T17:45:35.006Z,50.28
2024-04-15T17:48:02.457Z,50.84
2024-04-15T17:50:29.124Z,51.89
2024-04-15T17:52:55.189Z,52.46
2024-04-15T17:55:21.317Z,52.37
2024-04-15T17:57:47.976Z,52.28
2024-04-15T18:00:17.402Z,51.74
2024-04-15T18:02:43.480Z,52.07
2024-04-15T18:05:09.534Z,51.85
2024-04-15T18:07:35.731Z,51.40
2024-04-15T18:10:03.276Z,51.51
2024-04-15T18:12:29.357Z,51.50
2024-04-15T18:14:56.754Z,52.04
2024-04-15T18:17:22.975Z,51.63
2024-04-15T18:19:49.043Z,51.39
2024-04-15T18:22:15.216Z,51.60
2024-04-15T18:24:41.343Z,51.84
2024-04-15T18:27:08.158Z,51.43
2024-04-15T18:29:34.282Z,51.86
2024-04-15T18:32:00.914Z,51.60
2024-04-15T18:34:28.037Z,51.38
2024-04-15T18:36:55.226Z,51.74
2024-04-15T18:39:21.352Z,51.69
2024-04-15T18:41:47.446Z,51.97
2024-04-15T18:44:13.546Z,51.75
2024-04-15T18:46:39.712Z,51.96
2024-04-15T18:49:06.326Z,52.11
2024-04-15T18:51:32.387Z,52.12
2024-04-15T18:53:58.994Z,52.14
2024-04-15T18:56:25.551Z,52.11
2024-04-15T18:58:51.921Z,51.97
2024-04-15T19:01:18.113Z,51.95
2024-04-15T19:03:44.501Z,51.92
2024-04-15T19:06:10.729Z,51.38
2024-04-15T19:08:37.169Z,51.39
2024-04-15T19:11:03.570Z,50.89
2024-04-15T19:13:29.737Z,51.22
2024-04-15T19:15:55.894Z,51.21
2024-04-15T19:18:22.159Z,51.78
2024-04-15T19:20:48.385Z,52.88
2024-04-15T19:23:15.894Z,54.82
2024-04-15T19:25:42.011Z,56.21
2024-04-15T19:28:09.000Z,56.88
2024-04-15T19:30:35.206Z,57.46
2024-04-15T19:33:04.093Z,57.81
2024-04-15T19:35:30.287Z,58.72
2024-04-15T19:37:56.515Z,59.74
2024-04-15T19:40:23.204Z,60.11
2024-04-15T19:42:49.362Z,60.11
2024-04-15T19:45:15.540Z,60.45
2024-04-15T19:47:41.900Z,61.07
2024-04-15T19:50:08.302Z,61.13
2024-04-15T19:52:34.370Z,61.17
2024-04-15T19:55:03.525Z,61.05
2024-04-15T19:57:30.206Z,61.90
2024-04-15T19:59:56.365Z,62.38
2024-04-15T20:02:22.558Z,62.42
2024-04-15T20:04:48.744Z,62.56
2024-04-15T20:07:14.811Z,63.13
2024-04-15T20:09:40.898Z,63.76
2024-04-15T20:12:07.168Z,64.67
2024-04-15T20:14:34.004Z,65.43
2024-04-15T20:17:00.673Z,65.75
2024-04-15T20:19:27.127Z,66.36
2024-04-15T20:21:53.228Z,67.06
2024-04-15T20:24:19.290Z,67.59
2024-04-15T20:26:45.446Z,67.57
2024-04-15T20:29:11.510Z,67.63
2024-04-15T20:31:37.643Z,67.20
2024-04-15T20:34:03.841Z,67.31
2024-04-15T20:36:29.989Z,67.01
2024-04-15T20:38:56.778Z,67.16
2024-04-15T20:41:22.853Z,66.87
2024-04-15T20:43:48.942Z,66.84
2024-04-15T20:46:15.056Z,66.89
2024-04-15T20:48:41.180Z,67.34
2024-04-15T20:51:07.325Z,66.28
2024-04-15T20:53:33.371Z,66.98
2024-04-15T20:55:59.472Z,66.03
2024-04-15T20:58:25.633Z,66.48
2024-04-15T21:00:51.860Z,65.82
2024-04-15T21:03:17.956Z,66.56
2024-04-15T21:05:44.213Z,66.41
2024-04-15T21:08:10.252Z,66.35
2024-04-15T21:10:36.370Z,65.90
2024-04-15T21:13:02.516Z,66.04
2024-04-15T21:15:28.723Z,65.92
2024-04-15T21:17:54.789Z,65.76
2024-04-15T21:20:21.434Z,65.64
2024-04-15T21:22:47.496Z,65.42
2024-04-15T21:25:13.697Z,65.11
2024-04-15T21:27:39.846Z,64.51
2024-04-15T21:30:06.601Z,64.13
2024-04-15T21:32:32.768Z,63.79
2024-04-15T21:34:58.860Z,63.69
2024-04-15T21:37:25.052Z,63.61
2024-04-15T21:39:51.159Z,63.28
2024-04-15T21:42:17.279Z,63.52
2024-04-15T21:44:43.670Z,63.06
2024-04-15T21:47:10.963Z,62.91
2024-04-15T21:49:37.450Z,63.00
2024-04-15T21:52:03.686Z,62.72
2024-04-15T21:54:29.941Z,63.04
2024-04-15T21:56:58.430Z,63.70
2024-04-15T21:59:27.902Z,63.98
2024-04-15T22:01:53.993Z,64.22
2024-04-15T22:04:20.275Z,64.49
2024-04-15T22:06:46.379Z,64.62
2024-04-15T22:09:12.431Z,64.56
2024-04-15T22:11:38.462Z,64.27
2024-04-15T22:14:04.529Z,64.00
2024-04-15T22:16:30.625Z,64.23
2024-04-15T22:18:57.001Z,63.80
2024-04-15T22:21:23.080Z,63.78
2024-04-15T22:23:49.274Z,63.62
2024-04-15T22:26:15.349Z,63.48
2024-04-15T22:28:41.558Z,63.61
2024-04-15T22:31:07.654Z,63.41
2024-04-15T22:33:33.913Z,63.42
2024-04-15T22:36:00.068Z,63.68
2024-04-15T22:38:27.701Z,63.60
2024-04-15T22:40:53.809Z,63.32
2024-04-15T22:43:19.926Z,64.13
2024-04-15T22:45:46.320Z,63.93
2024-04-15T22:48:12.836Z,63.70
2024-04-15T22:50:39.049Z,64.17
2024-04-15T22:53:05.100Z,66.37
2024-04-15T22:55:31.853Z,65.41
2024-04-15T22:57:58.004Z,67.33
2024-04-15T23:00:24.254Z,67.19
2024-04-15T23:02:50.323Z,67.31
2024-04-15T23:05:16.657Z,68.00
2024-04-15T23:07:42.824Z,69.19
2024-04-15T23:10:09.171Z,69.33
2024-04-15T23:12:35.284Z,69.33
2024-04-15T23:15:01.494Z,69.28
2024-04-15T23:17:27.677Z,69.52
2024-04-15T23:19:53.862Z,70.25
2024-04-15T23:22:20.105Z,70.54
2024-04-15T23:24:46.734Z,70.40
2024-04-15T23:27:12.989Z,70.99
2024-04-15T23:29:39.694Z,71.49
2024-04-15T23:32:05.808Z,71.55
2024-04-15T23:34:31.974Z,72.39
2024-04-15T23:36:58.122Z,72.97
2024-04-15T23:39:24.224Z,72.60
2024-04-15T23:41:50.291Z,72.86
2024-04-15T23:44:16.332Z,72.83
2024-04-15T23:46:42.619Z,72.14
2024-04-15T23:49:08.782Z,72.75
2024-04-15T23:51:34.851Z,73.01
2024-04-15T23:54:00.926Z,72.85
2024-04-15T23:56:27.004Z,73.19
2024-04-15T23:58:53.089Z,73.48
